Time;durP1;ratioP1;P1;durP2;ratioP2;P2;SDS_P1;SDS_P2;PMS_P1;PMS_P2;Temp;Humidity;BMP_temperature;BMP_pressure;BME280_temperature;BME280_humidity;BME280_pressure;Samples;Min_cycle;Max_cycle;Signal;HPM_P1;HPM_P2
2022/08/22 00:00:27;;;;;;;10.70;7.80;;;18.90;99.90;;;;;;5054096;28;20041;-78
2022/08/22 00:03:21;;;;;;;17.27;9.70;;;19.00;99.90;;;;;;5056644;28;20049;-78
2022/08/22 00:06:00;;;;;;;12.40;8.43;;;19.00;99.90;;;;;;5057525;28;20037;-77
2022/08/22 00:08:39;;;;;;;15.48;8.48;;;18.90;99.90;;;;;;5057305;28;20040;-78
2022/08/22 00:11:13;;;;;;;10.13;7.95;;;18.90;99.90;;;;;;5064521;28;20108;-76
2022/08/22 00:13:52;;;;;;;12.48;8.40;;;18.90;99.90;;;;;;5049769;28;20041;-77
2022/08/22 00:16:28;;;;;;;11.93;7.50;;;18.90;99.90;;;;;;5064435;28;20055;-77
2022/08/22 00:19:05;;;;;;;12.40;7.28;;;18.90;99.90;;;;;;5065092;28;20041;-77
2022/08/22 00:21:42;;;;;;;10.68;7.68;;;18.90;99.90;;;;;;5063540;28;20447;-77
2022/08/22 00:24:20;;;;;;;9.93;6.75;;;18.90;99.90;;;;;;5067780;28;20037;-77
2022/08/22 00:26:54;;;;;;;8.85;6.97;;;18.90;99.90;;;;;;5066131;28;20106;-77
2022/08/22 00:29:26;;;;;;;10.63;6.50;;;18.80;99.90;;;;;;5081523;28;20036;-77
2022/08/22 00:32:03;;;;;;;10.93;5.95;;;18.80;99.90;;;;;;5073737;28;20088;-78
2022/08/22 00:34:38;;;;;;;10.65;5.75;;;18.80;99.90;;;;;;5041761;28;20064;-77
2022/08/22 00:37:11;;;;;;;7.20;5.37;;;18.80;99.90;;;;;;5055367;28;20110;-77
2022/08/22 00:39:44;;;;;;;11.20;5.88;;;18.70;99.90;;;;;;5038161;28;20049;-77
2022/08/22 00:42:39;;;;;;;9.90;5.57;;;18.70;99.90;;;;;;5037391;28;20051;-77
2022/08/22 00:45:50;;;;;;;7.80;5.10;;;18.70;99.90;;;;;;5017394;28;20050;-77
2022/08/22 00:48:56;;;;;;;9.48;5.82;;;18.70;99.90;;;;;;5054029;28;20084;-78
2022/08/22 00:52:05;;;;;;;7.45;5.43;;;18.80;99.90;;;;;;5054173;28;20053;-77
2022/08/22 00:55:01;;;;;;;9.05;4.70;;;18.70;99.90;;;;;;5023449;28;20080;-77
2022/08/22 00:58:04;;;;;;;6.68;4.07;;;18.80;99.90;;;;;;5054298;28;20102;-77
2022/08/22 01:00:37;;;;;;;7.85;4.75;;;18.70;99.90;;;;;;5044293;28;20037;-77
2022/08/22 01:03:40;;;;;;;5.53;4.20;;;18.70;99.90;;;;;;5053824;28;20044;-76
2022/08/22 01:06:22;;;;;;;9.60;4.25;;;18.70;99.90;;;;;;5055428;28;20041;-78
2022/08/22 01:09:04;;;;;;;14.10;4.97;;;18.70;99.90;;;;;;5052790;28;20041;-78
2022/08/22 01:11:56;;;;;;;8.75;7.47;;;18.80;99.90;;;;;;5035388;28;20128;-78
2022/08/22 01:14:40;;;;;;;7.10;4.35;;;18.70;99.90;;;;;;5034690;28;20053;-78
2022/08/22 01:17:39;;;;;;;6.32;3.88;;;18.70;99.90;;;;;;5034926;28;20033;-78
2022/08/22 01:20:51;;;;;;;11.35;4.05;;;18.70;99.90;;;;;;5048807;28;20119;-78
2022/08/22 01:24:01;;;;;;;9.57;4.93;;;18.80;99.90;;;;;;5054495;28;20396;-78
2022/08/22 01:27:18;;;;;;;7.15;4.50;;;18.70;99.90;;;;;;5035227;28;20546;-78
2022/08/22 01:30:18;;;;;;;8.10;4.82;;;18.80;99.90;;;;;;5034537;28;20049;-77
2022/08/22 01:33:38;;;;;;;7.18;4.15;;;18.80;99.90;;;;;;5028012;28;20089;-78
2022/08/22 01:37:00;;;;;;;10.85;3.60;;;18.70;99.90;;;;;;4989279;28;20483;-77
2022/08/22 01:40:03;;;;;;;8.45;3.88;;;18.70;99.90;;;;;;4974097;28;20179;-78
2022/08/22 01:42:54;;;;;;;5.90;3.63;;;18.70;99.90;;;;;;5014812;28;20115;-78
2022/08/22 01:45:54;;;;;;;7.10;3.45;;;18.70;99.90;;;;;;5023378;28;20551;-78
2022/08/22 01:48:27;;;;;;;5.60;3.53;;;18.70;99.90;;;;;;5033959;28;20099;-78
2022/08/22 01:50:58;;;;;;;6.88;3.42;;;18.70;99.90;;;;;;5034705;28;20045;-78
2022/08/22 01:53:42;;;;;;;6.47;3.50;;;18.80;99.90;;;;;;5033843;28;20442;-78
2022/08/22 01:56:12;;;;;;;9.50;4.13;;;18.80;99.90;;;;;;5034567;28;20042;-78
2022/08/22 01:58:53;;;;;;;10.13;3.80;;;18.80;99.90;;;;;;5029127;28;20053;-77
2022/08/22 02:01:36;;;;;;;5.13;3.58;;;18.70;99.90;;;;;;5041386;28;20047;-77
2022/08/22 02:04:09;;;;;;;5.75;3.83;;;18.70;99.90;;;;;;5035100;28;20480;-77
2022/08/22 02:06:45;;;;;;;4.53;2.92;;;18.70;99.90;;;;;;5033711;28;20048;-77
2022/08/22 02:09:30;;;;;;;4.57;3.20;;;18.70;99.90;;;;;;5035709;28;20045;-77
2022/08/22 02:12:12;;;;;;;7.82;3.88;;;18.70;99.90;;;;;;5019431;28;20054;-77
2022/08/22 02:14:47;;;;;;;6.47;3.28;;;18.70;99.90;;;;;;5016057;28;20045;-77
2022/08/22 02:17:20;;;;;;;5.63;3.33;;;18.70;99.90;;;;;;5015978;28;20125;-77
2022/08/22 02:19:57;;;;;;;9.68;3.15;;;18.60;99.90;;;;;;5044437;28;20446;-78
2022/08/22 02:22:36;;;;;;;3.63;3.00;;;18.60;99.90;;;;;;5052812;28;20484;-76
2022/08/22 02:25:12;;;;;;;7.55;3.42;;;18.60;99.90;;;;;;5065236;28;20436;-78
2022/08/22 02:27:53;;;;;;;4.82;3.10;;;18.60;99.90;;;;;;5074403;28;20098;-77
2022/08/22 02:30:25;;;;;;;9.07;3.58;;;18.70;99.90;;;;;;5047959;28;20099;-77
2022/08/22 02:33:00;;;;;;;5.03;3.22;;;18.70;99.90;;;;;;5053921;28;20048;-77
2022/08/22 02:35:34;;;;;;;8.57;3.78;;;18.70;99.90;;;;;;5040154;28;20041;-77
2022/08/22 02:38:14;;;;;;;6.40;3.50;;;18.60;99.90;;;;;;5033898;28;20045;-77
2022/08/22 02:40:51;;;;;;;7.43;3.05;;;18.60;99.90;;;;;;5034254;28;20069;-77
2022/08/22 02:43:24;;;;;;;7.47;3.28;;;18.60;99.90;;;;;;5033962;28;20084;-77
2022/08/22 02:45:56;;;;;;;6.07;3.28;;;18.60;99.90;;;;;;5034483;28;20046;-78
2022/08/22 02:48:36;;;;;;;7.55;3.80;;;18.70;99.90;;;;;;5033374;28;20037;-78
2022/08/22 02:51:11;;;;;;;6.88;3.33;;;18.70;99.90;;;;;;5034141;28;20366;-78
2022/08/22 02:53:48;;;;;;;4.97;3.47;;;18.70;99.90;;;;;;5033552;28;20100;-78
2022/08/22 02:56:21;;;;;;;5.82;3.47;;;18.70;99.90;;;;;;5034307;28;20068;-78
2022/08/22 02:58:54;;;;;;;5.35;3.20;;;18.70;99.90;;;;;;5033635;28;20059;-78
2022/08/22 03:01:33;;;;;;;6.68;3.20;;;18.70;99.90;;;;;;5045821;28;20045;-78
2022/08/22 03:04:27;;;;;;;6.90;3.17;;;18.70;99.90;;;;;;5053721;28;20065;-78
2022/08/22 03:07:11;;;;;;;13.25;3.63;;;18.70;99.90;;;;;;5053867;28;20037;-78
2022/08/22 03:09:45;;;;;;;4.50;3.40;;;18.70;99.90;;;;;;5053949;28;20459;-78
2022/08/22 03:12:21;;;;;;;6.78;3.85;;;18.70;99.90;;;;;;5056283;28;20041;-78
2022/08/22 03:14:54;;;;;;;;;;;18.60;99.90;;;;;;5055988;28;20049;-78
2022/08/22 03:17:31;;;;;;;9.32;4.30;;;18.60;99.90;;;;;;5037610;28;19921;-78
2022/08/22 03:20:05;;;;;;;9.15;4.00;;;18.60;99.90;;;;;;5052952;28;20048;-77
2022/08/22 03:22:38;;;;;;;8.77;4.10;;;18.60;99.90;;;;;;5057124;28;20110;-77
2022/08/22 03:25:14;;;;;;;6.45;4.00;;;18.60;99.90;;;;;;5067548;28;20059;-77
2022/08/22 03:27:50;;;;;;;12.25;4.07;;;18.60;99.90;;;;;;5058661;28;20462;-77
2022/08/22 03:30:21;;;;;;;6.18;3.85;;;18.60;99.90;;;;;;5036763;28;20045;-77
2022/08/22 03:32:55;;;;;;;9.00;3.80;;;18.60;99.90;;;;;;5036940;28;20103;-77
2022/08/22 03:35:26;;;;;;;5.25;3.70;;;18.60;99.90;;;;;;5049890;28;20048;-77
2022/08/22 03:38:08;;;;;;;8.48;3.55;;;18.60;99.90;;;;;;5056354;28;20045;-77
2022/08/22 03:40:52;;;;;;;7.93;3.67;;;18.60;99.90;;;;;;5056035;28;20087;-77
2022/08/22 03:43:50;;;;;;;7.00;3.78;;;18.60;99.90;;;;;;5055590;28;20053;-77
2022/08/22 03:46:53;;;;;;;5.95;3.67;;;18.50;99.90;;;;;;5056984;28;20087;-77
2022/08/22 03:49:47;;;;;;;8.75;4.68;;;18.50;99.90;;;;;;5056309;28;20048;-77
2022/08/22 03:53:05;;;;;;;11.05;4.70;;;18.60;99.90;;;;;;5058274;28;20069;-77
2022/08/22 03:55:33;;;;;;;7.82;4.82;;;18.60;99.90;;;;;;5058117;28;20103;-77
2022/08/22 03:58:28;;;;;;;8.88;4.88;;;18.60;99.90;;;;;;5055744;28;20492;-78
2022/08/22 04:01:30;;;;;;;8.37;4.93;;;18.60;99.90;;;;;;5031808;28;20132;-76
2022/08/22 04:04:27;;;;;;;9.43;4.82;;;18.60;99.90;;;;;;5011191;28;20088;-76
2022/08/22 04:07:09;;;;;;;;;;;18.60;99.90;;;;;;5047784;28;20087;-76
2022/08/22 04:10:10;;;;;;;8.45;5.00;;;18.60;99.90;;;;;;5052742;28;19921;-76
2022/08/22 04:12:58;;;;;;;12.45;5.72;;;18.60;99.90;;;;;;5055159;28;20041;-76
2022/08/22 04:15:55;;;;;;;11.30;5.65;;;18.60;99.90;;;;;;5054926;28;20071;-76
2022/08/22 04:19:05;;;;;;;12.65;5.78;;;18.60;99.90;;;;;;5036936;28;20049;-76
2022/08/22 04:22:10;;;;;;;11.65;5.90;;;18.60;99.90;;;;;;5054781;28;20064;-76
2022/08/22 04:24:52;;;;;;;11.73;6.90;;;18.60;99.90;;;;;;5060883;28;20511;-75
2022/08/22 04:27:26;;;;;;;11.32;8.30;;;18.50;99.90;;;;;;5074533;28;20047;-76
2022/08/22 04:30:01;;;;;;;14.57;9.32;;;18.50;99.90;;;;;;5074559;28;20488;-76
2022/08/22 04:32:45;;;;;;;16.13;9.60;;;18.60;99.90;;;;;;5034505;28;20049;-76
2022/08/22 04:35:24;;;;;;;17.33;10.10;;;18.60;99.90;;;;;;5046258;28;20136;-75
2022/08/22 04:37:57;;;;;;;18.35;10.55;;;18.60;99.90;;;;;;5054940;28;20462;-76
2022/08/22 04:40:31;;;;;;;17.67;9.30;;;18.60;99.90;;;;;;5054338;28;20045;-76
2022/08/22 04:43:05;;;;;;;18.50;10.27;;;18.60;99.90;;;;;;5054459;28;20072;-77
2022/08/22 04:45:38;;;;;;;16.30;9.32;;;18.60;99.90;;;;;;5047352;28;20495;-76
2022/08/22 04:48:11;;;;;;;12.48;8.80;;;18.70;99.90;;;;;;5034789;28;20053;-77
2022/08/22 04:50:47;;;;;;;13.05;8.55;;;18.70;99.90;;;;;;5033968;28;20547;-76
2022/08/22 04:53:22;;;;;;;;;;;18.70;99.90;;;;;;5034741;28;20065;-76
2022/08/22 04:56:01;;;;;;;12.73;7.65;;;18.70;99.90;;;;;;5047194;28;20015;-76
2022/08/22 04:58:44;;;;;;;12.18;8.88;;;18.70;99.90;;;;;;5053713;28;20132;-76
2022/08/22 05:01:16;;;;;;;10.95;8.25;;;18.70;99.90;;;;;;5043289;28;20052;-76
2022/08/22 05:03:50;;;;;;;13.52;8.85;;;18.60;99.90;;;;;;5033810;28;20394;-77
2022/08/22 05:06:22;;;;;;;27.85;10.60;;;18.70;99.90;;;;;;5034054;28;20061;-75
2022/08/22 05:08:51;;;;;;;17.67;8.82;;;18.60;99.90;;;;;;5033810;28;20037;-75
2022/08/22 05:11:23;;;;;;;13.63;8.32;;;18.70;99.90;;;;;;5034327;28;20057;-75
2022/08/22 05:13:54;;;;;;;12.52;9.15;;;18.70;99.90;;;;;;5040078;28;20102;-75
2022/08/22 05:16:25;;;;;;;7.57;6.85;;;18.70;99.90;;;;;;5035876;28;20455;-75
2022/08/22 05:18:56;;;;;;;9.68;6.05;;;18.80;99.90;;;;;;5053157;28;20388;-75
2022/08/22 05:21:29;;;;;;;6.57;5.60;;;18.80;99.90;;;;;;5053592;28;20099;-75
2022/08/22 05:24:01;;;;;;;6.95;4.90;;;18.80;99.90;;;;;;5054762;28;20124;-76
2022/08/22 05:26:32;;;;;;;8.27;5.40;;;18.70;99.90;;;;;;5060929;28;20102;-76
2022/08/22 05:29:03;;;;;;;7.32;6.28;;;18.70;99.90;;;;;;5053643;28;20045;-76
2022/08/22 05:31:34;;;;;;;8.35;5.85;;;18.60;99.90;;;;;;5053420;28;20484;-76
2022/08/22 05:34:04;;;;;;;10.00;6.70;;;18.60;99.90;;;;;;5050852;28;20045;-77
2022/08/22 05:36:38;;;;;;;9.48;5.93;;;18.60;99.90;;;;;;5033651;28;20119;-74
2022/08/22 05:39:10;;;;;;;11.52;6.07;;;18.70;99.90;;;;;;5047404;28;20047;-76
2022/08/22 05:41:41;;;;;;;10.43;6.10;;;18.80;99.90;;;;;;5053329;28;20124;-76
2022/08/22 05:44:19;;;;;;;9.73;6.93;;;18.90;99.90;;;;;;5053253;28;20488;-76
2022/08/22 05:46:51;;;;;;;13.13;9.13;;;18.90;99.90;;;;;;5053359;28;20112;-76
2022/08/22 05:49:22;;;;;;;12.68;9.95;;;19.00;99.90;;;;;;5053632;28;20213;-75
2022/08/22 05:52:08;;;;;;;9.75;6.78;;;19.10;99.90;;;;;;5053334;28;20053;-77
2022/08/22 05:54:47;;;;;;;12.80;7.68;;;19.10;99.90;;;;;;5015617;28;20045;-74
2022/08/22 05:57:23;;;;;;;9.57;7.30;;;19.20;99.90;;;;;;5033268;28;20460;-76
2022/08/22 05:59:57;;;;;;;13.23;6.07;;;19.20;99.90;;;;;;5032892;28;20053;-77
2022/08/22 06:02:38;;;;;;;110.28;24.58;;;19.30;99.90;;;;;;5032785;28;20095;-76
2022/08/22 06:05:06;;;;;;;10.35;6.60;;;19.40;99.90;;;;;;5035444;28;20049;-75
2022/08/22 06:07:41;;;;;;;14.35;6.75;;;19.50;99.90;;;;;;5033422;28;20103;-76
2022/08/22 06:10:20;;;;;;;10.63;6.20;;;19.50;99.90;;;;;;5033029;28;20497;-75
2022/08/22 06:12:54;;;;;;;14.18;8.20;;;19.50;99.90;;;;;;5032538;28;20046;-76
2022/08/22 06:15:28;;;;;;;25.88;18.35;;;19.50;99.90;;;;;;5033222;28;20473;-75
2022/08/22 06:18:00;;;;;;;14.10;7.40;;;19.50;99.90;;;;;;5032623;28;20041;-76
2022/08/22 06:20:32;;;;;;;23.48;16.83;;;19.50;99.90;;;;;;5048910;28;20061;-75
2022/08/22 06:23:02;;;;;;;22.75;13.98;;;19.50;99.90;;;;;;5037347;28;20049;-77
2022/08/22 06:25:34;;;;;;;28.98;20.95;;;19.40;99.90;;;;;;5071652;28;20054;-75
2022/08/22 06:28:06;;;;;;;37.17;25.42;;;19.40;99.90;;;;;;5076047;28;20083;-75
2022/08/22 06:30:36;;;;;;;31.90;18.38;;;19.40;99.90;;;;;;5047392;28;20038;-76
2022/08/22 06:33:07;;;;;;;20.50;13.90;;;19.40;99.90;;;;;;5040612;28;20076;-75
2022/08/22 06:38:25;;;;;;;16.65;11.32;;;19.60;99.90;;;;;;5030182;28;20045;-75
2022/08/22 06:40:53;;;;;;;17.25;11.18;;;19.60;99.90;;;;;;5034864;28;20033;-76
2022/08/22 06:43:23;;;;;;;18.08;11.45;;;19.70;99.90;;;;;;5035496;28;20076;-76
2022/08/22 06:45:51;;;;;;;18.20;12.02;;;19.70;99.90;;;;;;5032356;28;20049;-75
2022/08/22 06:48:23;;;;;;;30.10;20.10;;;19.50;99.90;;;;;;5051423;28;20564;-75
2022/08/22 06:50:57;;;;;;;17.17;13.50;;;19.50;99.90;;;;;;5039188;28;20037;-76
2022/08/22 06:53:30;;;;;;;25.65;15.18;;;19.40;99.90;;;;;;5043915;28;20389;-77
2022/08/22 06:56:01;;;;;;;28.63;17.02;;;19.40;99.90;;;;;;5052098;28;20128;-77
2022/08/22 06:58:33;;;;;;;38.55;21.80;;;19.50;99.90;;;;;;5055015;28;20520;-74
2022/08/22 07:01:05;;;;;;;36.38;20.27;;;19.50;99.90;;;;;;5048921;28;20032;-73
2022/08/22 07:03:36;;;;;;;35.35;21.08;;;19.40;99.90;;;;;;5056347;28;20076;-74
2022/08/22 07:06:04;;;;;;;30.77;17.25;;;19.40;99.90;;;;;;5043147;28;20349;-73
2022/08/22 07:08:34;;;;;;;24.52;16.60;;;19.40;99.90;;;;;;5036059;28;20044;-73
2022/08/22 07:11:10;;;;;;;19.33;11.55;;;19.60;99.90;;;;;;5036295;28;20055;-72
2022/08/22 07:13:42;;;;;;;18.42;13.68;;;19.60;99.90;;;;;;5035803;28;20120;-72
2022/08/22 07:16:10;;;;;;;20.75;16.02;;;19.80;99.90;;;;;;5045788;28;20046;-73
2022/08/22 07:18:49;;;;;;;16.10;11.82;;;19.80;99.90;;;;;;5034619;28;20124;-72
2022/08/22 07:21:26;;;;;;;23.92;16.23;;;19.90;99.90;;;;;;5035652;28;20049;-73
2022/08/22 07:23:59;;;;;;;17.15;11.65;;;20.10;99.90;;;;;;5055233;28;20041;-73
2022/08/22 07:26:33;;;;;;;17.95;12.90;;;20.30;99.90;;;;;;5075079;28;20044;-73
2022/08/22 07:29:06;;;;;;;21.67;16.80;;;20.40;99.90;;;;;;5045383;28;20149;-73
2022/08/22 07:31:39;;;;;;;20.58;12.40;;;20.50;99.90;;;;;;5040487;28;20124;-73
2022/08/22 07:34:34;;;;;;;17.00;12.77;;;20.40;99.90;;;;;;5052818;28;20045;-73
2022/08/22 07:37:05;;;;;;;21.90;14.05;;;20.40;99.90;;;;;;5038990;28;20045;-73
2022/08/22 07:39:39;;;;;;;26.50;18.25;;;20.40;99.90;;;;;;5045615;28;20091;-71
2022/08/22 07:42:14;;;;;;;22.95;16.08;;;20.30;99.90;;;;;;5047160;28;20041;-73
2022/08/22 07:45:01;;;;;;;27.83;19.00;;;20.20;99.90;;;;;;5035442;28;20042;-73
2022/08/22 07:47:42;;;;;;;22.33;15.55;;;20.10;99.90;;;;;;5035487;28;20117;-71
2022/08/22 07:50:14;;;;;;;20.60;14.25;;;20.00;99.90;;;;;;5035519;28;20046;-73
2022/08/22 07:52:44;;;;;;;19.30;13.68;;;20.10;99.90;;;;;;5034993;28;20076;-73
2022/08/22 07:55:18;;;;;;;25.15;14.38;;;20.20;99.90;;;;;;5045421;28;20157;-73
2022/08/22 07:57:49;;;;;;;30.25;23.38;;;20.60;99.90;;;;;;5045362;28;20034;-71
2022/08/22 08:00:19;;;;;;;23.42;17.27;;;21.00;99.90;;;;;;5030943;28;20049;-71
2022/08/22 08:02:49;;;;;;;26.75;19.27;;;21.10;99.90;;;;;;5041493;28;20119;-71
2022/08/22 08:05:18;;;;;;;29.95;23.30;;;20.90;99.90;;;;;;5019629;28;20523;-72
2022/08/22 08:07:47;;;;;;;27.95;22.00;;;20.80;99.90;;;;;;5049656;28;20102;-72
2022/08/22 08:10:19;;;;;;;30.73;23.45;;;20.70;99.90;;;;;;5039319;28;20042;-72
2022/08/22 08:12:50;;;;;;;28.20;21.05;;;20.70;99.90;;;;;;5032813;28;20045;-72
2022/08/22 08:15:20;;;;;;;27.52;21.98;;;20.50;99.90;;;;;;5034328;28;20068;-72
2022/08/22 08:17:53;;;;;;;20.73;14.85;;;20.60;99.90;;;;;;5033655;28;20103;-72
2022/08/22 08:20:23;;;;;;;23.00;16.38;;;20.60;99.90;;;;;;5049305;28;20060;-73
2022/08/22 08:22:52;;;;;;;16.77;12.15;;;20.70;99.90;;;;;;5053528;28;20052;-73
2022/08/22 08:25:25;;;;;;;13.98;11.55;;;20.70;99.90;;;;;;5066471;28;20044;-73
2022/08/22 08:30:43;;;;;;;16.02;10.20;;;20.50;99.90;;;;;;5074899;28;20037;-72
2022/08/22 08:33:15;;;;;;;12.55;9.43;;;20.40;99.90;;;;;;5073906;28;20389;-72
2022/08/22 08:35:47;;;;;;;14.73;11.63;;;20.20;99.90;;;;;;5058519;28;20503;-72
2022/08/22 08:38:19;;;;;;;13.80;11.05;;;20.10;99.90;;;;;;5054731;28;20381;-72
2022/08/22 08:41:30;;;;;;;18.42;13.25;;;20.10;99.90;;;;;;5054219;28;20060;-72
2022/08/22 08:44:05;;;;;;;20.13;13.43;;;20.10;99.90;;;;;;5054088;28;20041;-71
2022/08/22 08:47:18;;;;;;;21.83;15.90;;;20.00;99.90;;;;;;5054411;28;20041;-72
2022/08/22 08:49:59;;;;;;;23.77;16.88;;;19.90;99.90;;;;;;5054083;28;20067;-72
2022/08/22 08:52:57;;;;;;;22.90;14.95;;;19.90;99.90;;;;;;5054020;28;20373;-73
2022/08/22 08:55:37;;;;;;;20.65;15.30;;;19.80;99.90;;;;;;5054205;28;20128;-72
2022/08/22 08:58:32;;;;;;;18.05;13.48;;;19.90;99.90;;;;;;5053901;28;20499;-71
2022/08/22 09:01:12;;;;;;;18.25;12.82;;;20.10;99.90;;;;;;5054472;28;20056;-71
2022/08/22 09:04:20;;;;;;;19.20;15.52;;;20.40;99.90;;;;;;5053800;28;20049;-73
2022/08/22 09:07:06;;;;;;;21.23;14.45;;;20.70;99.90;;;;;;5032321;28;20423;-72
2022/08/22 09:09:50;;;;;;;20.85;14.60;;;20.90;99.90;;;;;;5053151;28;20037;-73
2022/08/22 09:12:40;;;;;;;17.48;14.52;;;20.90;99.90;;;;;;5053776;28;20443;-73
2022/08/22 09:15:19;;;;;;;21.50;15.15;;;20.90;99.90;;;;;;5053531;28;20064;-72
2022/08/22 09:18:13;;;;;;;27.13;20.52;;;20.60;99.90;;;;;;5053594;28;20044;-71
2022/08/22 09:20:58;;;;;;;23.13;17.13;;;20.40;99.90;;;;;;5053137;28;20149;-72
2022/08/22 09:24:00;;;;;;;18.48;14.82;;;20.20;99.90;;;;;;5053663;28;20064;-72
2022/08/22 09:26:35;;;;;;;12.50;9.93;;;20.00;99.90;;;;;;5033382;28;20040;-72
2022/08/22 09:29:16;;;;;;;15.75;11.45;;;19.90;99.90;;;;;;5033515;28;20034;-72
2022/08/22 09:31:52;;;;;;;17.25;10.35;;;19.90;99.90;;;;;;5033406;28;20065;-73
2022/08/22 09:34:25;;;;;;;16.80;11.07;;;19.80;99.90;;;;;;5033170;28;20045;-72
2022/08/22 09:37:10;;;;;;;16.02;11.65;;;19.90;99.90;;;;;;5033150;28;20045;-72
2022/08/22 09:39:50;;;;;;;18.00;11.63;;;20.00;99.90;;;;;;5015499;28;20502;-72
2022/08/22 09:42:23;;;;;;;9.43;7.22;;;20.10;99.90;;;;;;5033303;28;20076;-72
2022/08/22 09:44:59;;;;;;;7.78;5.50;;;20.00;99.90;;;;;;5033315;28;20053;-72
2022/08/22 09:47:33;;;;;;;9.00;6.93;;;19.90;99.90;;;;;;5015553;28;20111;-72
2022/08/22 09:50:11;;;;;;;17.30;10.90;;;19.90;99.90;;;;;;5032915;28;20041;-72
2022/08/22 09:52:58;;;;;;;13.55;7.53;;;19.80;99.90;;;;;;5032682;28;20041;-72
2022/08/22 09:55:39;;;;;;;8.48;5.05;;;19.80;99.90;;;;;;5032729;28;20041;-74
2022/08/22 09:58:16;;;;;;;10.20;7.28;;;19.50;99.90;;;;;;5032693;28;20080;-72
2022/08/22 10:00:50;;;;;;;10.07;6.75;;;19.50;99.90;;;;;;5033543;28;20041;-75
2022/08/22 10:03:25;;;;;;;15.80;11.18;;;19.50;99.90;;;;;;5033401;28;20064;-75
2022/08/22 10:05:59;;;;;;;17.50;10.90;;;19.60;99.90;;;;;;5032901;28;20497;-74
2022/08/22 10:08:47;;;;;;;16.33;10.57;;;19.60;99.90;;;;;;5032849;28;20103;-74
2022/08/22 10:11:26;;;;;;;16.83;10.07;;;19.80;99.90;;;;;;5032852;28;20041;-74
2022/08/22 10:13:59;;;;;;;12.23;6.03;;;19.90;99.90;;;;;;5032848;28;20069;-75
2022/08/22 10:16:47;;;;;;;17.13;13.10;;;20.00;99.90;;;;;;5015316;28;20134;-75
2022/08/22 10:19:25;;;;;;;11.10;8.40;;;20.40;99.90;;;;;;5039016;28;20124;-75
2022/08/22 10:22:22;;;;;;;10.77;8.00;;;20.60;99.90;;;;;;5054990;28;20128;-75
2022/08/22 10:24:55;;;;;;;;;;;20.90;99.90;;;;;;5063226;28;20454;-74
2022/08/22 10:27:42;;;;;;;10.20;5.82;;;21.00;99.90;;;;;;5058991;28;19921;-75
2022/08/22 10:30:13;;;;;;;6.47;4.07;;;21.00;99.90;;;;;;5076762;28;20083;-75
2022/08/22 10:32:46;;;;;;;6.32;4.55;;;21.20;99.90;;;;;;5076479;28;20037;-75
2022/08/22 10:35:21;;;;;;;11.27;4.25;;;21.20;99.90;;;;;;5064742;28;20045;-74
2022/08/22 10:37:56;;;;;;;7.85;4.68;;;21.20;99.90;;;;;;5056654;28;20037;-75
2022/08/22 10:40:29;;;;;;;13.95;7.28;;;21.20;99.90;;;;;;5056648;28;20079;-75
2022/08/22 10:43:07;;;;;;;9.07;4.97;;;21.20;99.90;;;;;;5056210;28;20045;-75
2022/08/22 10:45:37;;;;;;;6.40;4.20;;;21.10;99.90;;;;;;5053996;28;20111;-74
2022/08/22 10:48:30;;;;;;;7.88;6.03;;;21.10;99.90;;;;;;5040168;28;20048;-73
2022/08/22 10:51:05;;;;;;;7.00;4.20;;;21.20;99.90;;;;;;5036721;28;20041;-75
2022/08/22 10:53:45;;;;;;;10.50;5.75;;;21.10;99.90;;;;;;5041611;28;20507;-73
2022/08/22 10:56:18;;;;;;;5.75;3.72;;;21.00;99.90;;;;;;5042746;28;20122;-74
2022/08/22 10:58:53;;;;;;;7.10;5.32;;;20.90;99.90;;;;;;5051176;28;20056;-74
2022/08/22 11:01:24;;;;;;;7.53;5.28;;;20.70;99.90;;;;;;5048309;28;20057;-74
2022/08/22 11:04:00;;;;;;;9.13;5.25;;;20.50;99.90;;;;;;5037606;28;20045;-74
2022/08/22 11:06:35;;;;;;;8.57;4.57;;;20.50;99.90;;;;;;5036418;28;20060;-74
2022/08/22 11:09:20;;;;;;;12.32;7.30;;;20.40;99.90;;;;;;5037808;28;20049;-73
2022/08/22 11:11:55;;;;;;;25.25;12.10;;;20.30;99.90;;;;;;5042426;28;20072;-74
2022/08/22 11:14:46;;;;;;;14.90;8.77;;;20.40;99.90;;;;;;5043770;28;20561;-75
2022/08/22 11:17:27;;;;;;;11.60;8.00;;;20.30;99.90;;;;;;5037498;28;20114;-75
2022/08/22 11:20:10;;;;;;;11.75;8.52;;;20.50;99.90;;;;;;5047745;28;20052;-75
2022/08/22 11:22:47;;;;;;;13.23;7.95;;;20.60;99.90;;;;;;5039269;28;20041;-75
2022/08/22 11:25:26;;;;;;;13.18;9.88;;;20.80;99.90;;;;;;5054167;28;20049;-75
2022/08/22 11:28:21;;;;;;;11.77;9.23;;;21.00;99.90;;;;;;5042110;28;20076;-76
2022/08/22 11:31:03;;;;;;;10.13;7.00;;;21.10;99.90;;;;;;5020085;28;20053;-74
2022/08/22 11:33:40;;;;;;;10.02;7.72;;;21.20;99.90;;;;;;5016875;28;20049;-75
2022/08/22 11:36:21;;;;;;;16.90;10.23;;;21.10;99.90;;;;;;5056290;28;20091;-75
2022/08/22 11:38:59;;;;;;;6.28;5.68;;;21.00;99.90;;;;;;5055087;28;20041;-75
2022/08/22 11:41:35;;;;;;;10.32;6.50;;;20.60;99.90;;;;;;5042863;28;20091;-76
2022/08/22 11:44:08;;;;;;;7.77;6.03;;;20.50;99.90;;;;;;5039327;28;20045;-75
2022/08/22 11:46:39;;;;;;;7.95;5.50;;;20.40;99.90;;;;;;5054884;28;20060;-76
2022/08/22 11:49:25;;;;;;;12.65;6.20;;;20.30;99.90;;;;;;5049746;28;20042;-75
2022/08/22 11:52:07;;;;;;;10.73;6.50;;;20.30;99.90;;;;;;5049834;28;20045;-76
2022/08/22 11:54:55;;;;;;;10.95;8.15;;;20.40;99.90;;;;;;5045453;28;20095;-75
2022/08/22 11:57:30;;;;;;;12.13;8.48;;;20.50;99.90;;;;;;5038722;28;20119;-74
2022/08/22 12:00:08;;;;;;;14.35;6.88;;;20.70;99.90;;;;;;5047295;28;20053;-74
2022/08/22 12:02:46;;;;;;;8.88;5.82;;;21.10;99.90;;;;;;5035129;28;20045;-75
2022/08/22 12:05:18;;;;;;;14.55;9.35;;;21.40;99.90;;;;;;5046013;28;20468;-75
2022/08/22 12:07:54;;;;;;;12.05;5.53;;;21.90;99.90;;;;;;5054428;28;20049;-75
2022/08/22 12:10:29;;;;;;;9.63;6.03;;;22.10;99.90;;;;;;5055026;28;20033;-75
2022/08/22 12:13:01;;;;;;;7.65;5.28;;;22.30;99.90;;;;;;5054694;28;20041;-74
2022/08/22 12:15:37;;;;;;;6.63;5.05;;;22.40;86.50;;;;;;5028840;28;20076;-75
2022/08/22 12:18:37;;;;;;;15.68;8.05;;;22.30;1.00;;;;;;5036143;28;20050;-74
2022/08/22 12:21:37;;;;;;;11.10;6.60;;;22.00;1.00;;;;;;5042788;28;20424;-75
2022/08/22 12:24:24;;;;;;;13.45;8.18;;;22.20;1.00;;;;;;5030386;28;20053;-75
2022/08/22 12:27:08;;;;;;;11.02;6.78;;;22.30;1.00;;;;;;5075753;28;20484;-75
2022/08/22 12:29:44;;;;;;;6.70;5.43;;;22.00;1.00;;;;;;5075974;28;20052;-75
2022/08/22 12:32:32;;;;;;;;;;;22.10;99.90;;;;;;5065560;28;20049;-74
2022/08/22 12:35:14;;;;;;;7.50;6.05;;;22.10;99.90;;;;;;5048054;28;19967;-75
2022/08/22 12:37:49;;;;;;;9.80;7.47;;;22.10;99.90;;;;;;5055216;28;20083;-74
2022/08/22 12:40:29;;;;;;;9.48;8.15;;;22.40;1.00;;;;;;5043451;28;20477;-74
2022/08/22 12:43:30;;;;;;;8.63;7.68;;;22.70;1.00;;;;;;5042069;28;20045;-75
2022/08/22 12:46:14;;;;;;;9.45;6.68;;;22.90;1.00;;;;;;5031230;28;20110;-75
2022/08/22 12:48:54;;;;;;;8.30;7.05;;;22.70;1.00;;;;;;5042818;28;20115;-75
2022/08/22 12:51:30;;;;;;;9.05;7.75;;;22.40;1.00;;;;;;5034365;28;20550;-74
2022/08/22 12:54:21;;;;;;;;;;;22.20;1.00;;;;;;5035310;28;20045;-75
2022/08/22 12:56:56;;;;;;;12.70;10.30;;;22.00;1.00;;;;;;5041590;28;20431;-73
2022/08/22 12:59:29;;;;;;;12.23;11.02;;;21.90;99.90;;;;;;5042485;28;20049;-74
2022/08/22 13:02:01;;;;;;;14.52;12.48;;;21.60;99.90;;;;;;5036032;28;20072;-75
2022/08/22 13:04:32;;;;;;;21.85;17.88;;;21.50;1.00;;;;;;5035636;28;20042;-74
2022/08/22 13:07:08;;;;;;;19.90;16.67;;;21.50;1.00;;;;;;5052610;28;20076;-74
2022/08/22 13:09:39;;;;;;;15.52;11.95;;;21.40;1.00;;;;;;5036174;28;20484;-74
2022/08/22 13:12:20;;;;;;;14.35;9.88;;;21.30;1.00;;;;;;5042382;28;20132;-75
2022/08/22 13:14:55;;;;;;;11.68;9.70;;;21.30;1.00;;;;;;5053201;28;20044;-74
2022/08/22 13:17:25;;;;;;;13.48;10.68;;;21.20;1.00;;;;;;5033674;28;20041;-75
2022/08/22 13:20:03;;;;;;;17.98;14.25;;;21.20;1.00;;;;;;5039819;28;20457;-74
2022/08/22 13:22:33;;;;;;;13.95;8.32;;;21.10;1.00;;;;;;5022719;28;20053;-75
2022/08/22 13:25:05;;;;;;;12.55;10.32;;;21.20;1.00;;;;;;5053795;28;20039;-75
2022/08/22 13:27:36;;;;;;;15.85;9.55;;;21.30;1.00;;;;;;5055004;28;20044;-75
2022/08/22 13:30:08;;;;;;;16.42;10.25;;;21.70;1.00;;;;;;5048246;28;20476;-76
2022/08/22 13:32:46;;;;;;;16.80;12.93;;;22.10;99.90;;;;;;5031979;28;20453;-75
2022/08/22 13:35:23;;;;;;;15.80;9.10;;;22.50;1.00;;;;;;5045032;28;20063;-76
2022/08/22 13:37:55;;;;;;;17.80;12.27;;;22.80;1.00;;;;;;5053326;28;20056;-75
2022/08/22 13:40:26;;;;;;;12.00;8.80;;;22.90;99.90;;;;;;5035225;28;20408;-75
2022/08/22 13:43:02;;;;;;;16.65;12.57;;;22.90;1.00;;;;;;5041975;28;20037;-76
2022/08/22 13:45:33;;;;;;;13.73;11.30;;;22.80;1.00;;;;;;5032914;28;20049;-76
2022/08/22 13:48:07;;;;;;;11.90;8.80;;;23.10;1.00;;;;;;5045591;28;20045;-77